createdAt,value
2023-02-11T00:01:20.979Z,102550.69
2023-02-11T00:03:47.648Z,102556.75
2023-02-11T00:06:14.874Z,102559.38
2023-02-11T00:08:41.558Z,102564.63
2023-02-11T00:11:12.105Z,102561.19
2023-02-11T00:13:38.635Z,102568.13
2023-02-11T00:16:10.301Z,102568.13
2023-02-11T00:18:37.729Z,102569.03
2023-02-11T00:21:08.914Z,102553.50
2023-02-11T00:23:35.858Z,102542.28
2023-02-11T00:26:02.567Z,102537.94
2023-02-11T00:28:29.458Z,102533.66
2023-02-11T00:30:59.004Z,102526.78
2023-02-11T00:33:26.330Z,102508.59
2023-02-11T00:35:53.075Z,102516.44
2023-02-11T00:38:19.898Z,102519.03
2023-02-11T00:40:46.464Z,102515.59
2023-02-11T00:43:13.082Z,102515.66
2023-02-11T00:45:39.626Z,102506.09
2023-02-11T00:48:06.269Z,102501.88
2023-02-11T00:50:32.814Z,102503.56
2023-02-11T00:52:59.420Z,102499.31
2023-02-11T00:55:25.987Z,102494.13
2023-02-11T00:57:52.605Z,102489.78
2023-02-11T01:00:19.155Z,102481.16
2023-02-11T01:02:45.679Z,102467.34
2023-02-11T01:05:12.264Z,102474.28
2023-02-11T01:07:39.161Z,102478.59
2023-02-11T01:10:06.068Z,102470.81
2023-02-11T01:12:36.533Z,102456.97
2023-02-11T01:15:04.021Z,102462.19
2023-02-11T01:17:31.697Z,102462.22
2023-02-11T01:19:58.231Z,102446.69
2023-02-11T01:22:24.811Z,102451.88
2023-02-11T01:24:51.304Z,102447.56
2023-02-11T01:27:17.960Z,102452.75
2023-02-11T01:29:44.549Z,102451.09
2023-02-11T01:32:11.149Z,102445.00
2023-02-11T01:34:37.682Z,102441.56
2023-02-11T01:37:05.244Z,102430.34
2023-02-11T01:39:34.587Z,102430.34
2023-02-11T01:42:01.837Z,102428.66
2023-02-11T01:44:32.986Z,102424.34
2023-02-11T01:47:00.374Z,102437.38
2023-02-11T01:49:30.525Z,102431.41
2023-02-11T01:52:22.216Z,102427.94
2023-02-11T01:55:21.138Z,102437.50
2023-02-11T01:57:53.566Z,102438.44
2023-02-11T02:00:36.177Z,102454.06
2023-02-11T02:03:22.542Z,102454.13
2023-02-11T02:06:05.474Z,102448.09
2023-02-11T02:08:44.175Z,102442.94
2023-02-11T02:11:11.431Z,102432.53
2023-02-11T02:13:37.991Z,102437.75
2023-02-11T02:16:13.624Z,102434.38
2023-02-11T02:19:30.060Z,102427.47
2023-02-11T02:22:06.730Z,102420.56
2023-02-11T02:24:56.625Z,102417.16
2023-02-11T02:28:02.115Z,102411.13
2023-02-11T02:30:47.564Z,102405.97
2023-02-11T02:33:32.172Z,102404.22
2023-02-11T02:36:05.524Z,102403.41
2023-02-11T02:38:38.493Z,102409.53
2023-02-11T02:41:12.406Z,102409.56
2023-02-11T02:43:45.646Z,102415.66
2023-02-11T02:46:16.830Z,102423.47
2023-02-11T02:48:44.218Z,102416.59
2023-02-11T02:51:32.446Z,102416.63
2023-02-11T02:54:09.485Z,102391.47
2023-02-11T02:57:16.053Z,102388.91
2023-02-11T02:59:45.330Z,102390.69
2023-02-11T03:02:26.568Z,102398.53
2023-02-11T03:05:23.428Z,102389.88
2023-02-11T03:08:02.681Z,102384.72
2023-02-11T03:10:33.232Z,102378.69
2023-02-11T03:13:00.941Z,102374.34
2023-02-11T03:15:30.637Z,102377.00
2023-02-11T03:18:00.674Z,102374.44
2023-02-11T03:20:30.348Z,102371.00
2023-02-11T03:23:09.570Z,102370.19
2023-02-11T03:25:41.220Z,102371.91
2023-02-11T03:28:21.436Z,102371.97
2023-02-11T03:31:09.573Z,102370.22
2023-02-11T03:33:48.301Z,102357.28
2023-02-11T03:36:25.980Z,102357.28
2023-02-11T03:38:58.545Z,102359.97
2023-02-11T03:41:25.930Z,102353.88
2023-02-11T03:43:56.080Z,102354.78
2023-02-11T03:46:29.013Z,102350.50
2023-02-11T03:49:02.930Z,102351.38
2023-02-11T03:51:31.979Z,102341.88
2023-02-11T03:54:01.965Z,102333.22
2023-02-11T03:56:32.584Z,102328.06
2023-02-11T03:58:59.296Z,102333.31
2023-02-11T04:01:26.019Z,102346.34
2023-02-11T04:03:52.590Z,102348.94
2023-02-11T04:06:21.272Z,102364.56
2023-02-11T04:08:47.823Z,102371.56
2023-02-11T04:11:14.418Z,102384.59
2023-02-11T04:13:41.147Z,102386.34
2023-02-11T04:16:07.938Z,102383.81
2023-02-11T04:18:34.567Z,102388.13
2023-02-11T04:21:01.128Z,102386.47
2023-02-11T04:23:27.632Z,102383.91
2023-02-11T04:25:56.314Z,102377.88
2023-02-11T04:28:23.041Z,102380.50
2023-02-11T04:30:51.548Z,102379.69
2023-02-11T04:33:18.131Z,102384.06
2023-02-11T04:35:45.186Z,102371.94
2023-02-11T04:38:11.696Z,102374.59
2023-02-11T04:40:38.388Z,102372.88
2023-02-11T04:43:04.978Z,102372.06
2023-02-11T04:45:31.915Z,102373.81
2023-02-11T04:47:58.506Z,102365.16
2023-02-11T04:50:25.214Z,102359.06
2023-02-11T04:52:51.714Z,102370.41
2023-02-11T04:55:18.333Z,102378.25
2023-02-11T04:57:44.917Z,102362.63
2023-02-11T05:00:12.179Z,102369.59
2023-02-11T05:02:38.731Z,102367.88
2023-02-11T05:05:05.728Z,102363.53
2023-02-11T05:07:32.322Z,102367.03
2023-02-11T05:09:58.889Z,102364.44
2023-02-11T05:12:25.472Z,102367.91
2023-02-11T05:14:52.007Z,102358.34
2023-02-11T05:17:18.759Z,102363.56
2023-02-11T05:19:45.377Z,102354.91
2023-02-11T05:22:11.849Z,102351.47
2023-02-11T05:24:38.450Z,102345.44
2023-02-11T05:27:05.133Z,102349.75
2023-02-11T05:29:32.022Z,102351.53
2023-02-11T05:31:59.994Z,102342.88
2023-02-11T05:34:26.534Z,102331.56
2023-02-11T05:36:53.096Z,102329.03
2023-02-11T05:39:19.635Z,102316.88
2023-02-11T05:41:46.191Z,102329.06
2023-02-11T05:44:12.735Z,102322.16
2023-02-11T05:46:39.419Z,102324.78
2023-02-11T05:49:06.035Z,102315.31
2023-02-11T05:51:32.547Z,102311.81
2023-02-11T05:53:59.093Z,102312.75
2023-02-11T05:56:25.629Z,102304.94
2023-02-11T05:58:52.168Z,102296.31
2023-02-11T06:01:18.749Z,102305.03
2023-02-11T06:03:45.324Z,102307.66
2023-02-11T06:06:12.559Z,102320.72
2023-02-11T06:08:39.655Z,102312.06
2023-02-11T06:11:06.575Z,102324.25
2023-02-11T06:13:33.332Z,102335.53
2023-02-11T06:16:01.262Z,102336.41
2023-02-11T06:18:31.162Z,102349.44
2023-02-11T06:20:57.734Z,102360.75
2023-02-11T06:23:24.266Z,102357.31
2023-02-11T06:25:52.369Z,102352.16
2023-02-11T06:28:19.771Z,102354.78
2023-02-11T06:30:46.410Z,102353.94
2023-02-11T06:33:12.894Z,102360.94
2023-02-11T06:35:39.648Z,102367.88
2023-02-11T06:38:06.179Z,102356.63
2023-02-11T06:40:32.749Z,102356.63
2023-02-11T06:42:59.413Z,102355.81
2023-02-11T06:45:25.980Z,102356.66
2023-02-11T06:47:52.991Z,102362.75
2023-02-11T06:50:19.601Z,102365.38
2023-02-11T06:52:46.156Z,102369.69
2023-02-11T06:55:12.668Z,102370.59
2023-02-11T06:57:39.283Z,102390.56
2023-02-11T07:00:06.349Z,102374.91
2023-02-11T07:02:32.862Z,102387.94
2023-02-11T07:04:59.466Z,102374.06
2023-02-11T07:07:27.253Z,102375.00
2023-02-11T07:09:53.831Z,102380.22
2023-02-11T07:12:20.314Z,102375.88
2023-02-11T07:14:46.893Z,102375.91
2023-02-11T07:17:13.537Z,102375.06
2023-02-11T07:19:40.154Z,102382.88
2023-02-11T07:22:06.686Z,102386.38
2023-02-11T07:24:33.282Z,102387.28
2023-02-11T07:26:59.965Z,102398.56
2023-02-11T07:29:26.440Z,102397.75
2023-02-11T07:31:53.040Z,102396.91
2023-02-11T07:34:19.743Z,102411.66
2023-02-11T07:36:46.438Z,102412.56
2023-02-11T07:39:13.627Z,102420.41
2023-02-11T07:41:40.481Z,102412.63
2023-02-11T07:44:07.143Z,102425.66
2023-02-11T07:46:35.631Z,102420.47
2023-02-11T07:49:02.349Z,102424.00
2023-02-11T07:51:31.119Z,102416.19
2023-02-11T07:53:59.775Z,102436.16
2023-02-11T07:56:27.978Z,102441.38
2023-02-11T07:58:54.864Z,102457.06
2023-02-11T08:01:25.467Z,102457.13
2023-02-11T08:03:52.704Z,102450.16
2023-02-11T08:06:21.457Z,102457.16
2023-02-11T08:08:49.160Z,102463.25
2023-02-11T08:11:24.490Z,102467.63
2023-02-11T08:13:51.879Z,102469.41
2023-02-11T08:16:20.342Z,102472.91
2023-02-11T08:18:47.731Z,102475.53
2023-02-11T08:21:14.624Z,102480.78
2023-02-11T08:23:43.304Z,102477.34
2023-02-11T08:26:12.859Z,102483.44
2023-02-11T08:28:41.872Z,102474.75
2023-02-11T08:31:11.311Z,102483.50
2023-02-11T08:33:40.310Z,102486.97
2023-02-11T08:36:17.843Z,102492.22
2023-02-11T08:38:44.780Z,102484.41
2023-02-11T08:41:11.779Z,102496.63
2023-02-11T08:43:41.680Z,102482.72
2023-02-11T08:46:14.510Z,102487.97
2023-02-11T08:48:41.519Z,102481.88
2023-02-11T08:51:10.669Z,102478.41
2023-02-11T08:53:37.283Z,102477.53
2023-02-11T08:56:04.332Z,102467.94
2023-02-11T08:58:30.891Z,102470.56
2023-02-11T09:00:57.768Z,102471.44
2023-02-11T09:03:24.879Z,102478.47
2023-02-11T09:05:53.387Z,102482.00
2023-02-11T09:08:21.132Z,102481.19
2023-02-11T09:10:47.783Z,102481.22
2023-02-11T09:13:14.578Z,102484.72
2023-02-11T09:15:45.411Z,102483.88
2023-02-11T09:18:12.020Z,102498.72
2023-02-11T09:20:39.844Z,102505.72
2023-02-11T09:23:06.366Z,102510.97
2023-02-11T09:25:32.873Z,102501.44
2023-02-11T09:27:59.499Z,102488.44
2023-02-11T09:30:26.370Z,102490.19
2023-02-11T09:32:52.934Z,102491.13
2023-02-11T09:35:19.500Z,102484.16
2023-02-11T09:37:46.034Z,102488.53
2023-02-11T09:40:14.630Z,102492.03
2023-02-11T09:42:51.228Z,102507.69
2023-02-11T09:45:29.201Z,102512.06
2023-02-11T09:47:59.223Z,102507.75
2023-02-11T09:50:36.323Z,102499.09
2023-02-11T09:53:14.588Z,102512.16
2023-02-11T09:55:44.809Z,102516.53
2023-02-11T09:58:22.398Z,102526.13
2023-02-11T10:01:02.817Z,102530.47
2023-02-11T10:03:47.813Z,102528.78
2023-02-11T10:06:35.077Z,102540.94
2023-02-11T10:09:19.872Z,102545.34
2023-02-11T10:12:13.705Z,102555.84
2023-02-11T10:15:12.306Z,102557.56
2023-02-11T10:17:53.335Z,102553.31
2023-02-11T10:21:01.595Z,102551.63
2023-02-11T10:23:36.702Z,102543.84
2023-02-11T10:26:03.625Z,102529.13
2023-02-11T10:28:33.929Z,102517.00
2023-02-11T10:31:11.494Z,102517.00
2023-02-11T10:33:49.452Z,102511.84
2023-02-11T10:36:18.352Z,102514.50
2023-02-11T10:38:45.379Z,102518.06
2023-02-11T10:41:21.084Z,102525.06
2023-02-11T10:43:48.025Z,102533.78
2023-02-11T10:46:17.497Z,102534.66
2023-02-11T10:48:44.182Z,102523.41
2023-02-11T10:51:12.783Z,102510.44
2023-02-11T10:53:41.025Z,102513.06
2023-02-11T10:56:11.139Z,102517.50
2023-02-11T10:58:46.160Z,102527.06
2023-02-11T11:01:24.463Z,102520.09
2023-02-11T11:03:53.021Z,102530.56
2023-02-11T11:06:33.540Z,102534.06
2023-02-11T11:09:01.044Z,102521.03
2023-02-11T11:11:27.614Z,102538.53
2023-02-11T11:13:54.122Z,102536.75
2023-02-11T11:16:25.160Z,102535.91
2023-02-11T11:19:22.320Z,102542.94
2023-02-11T11:21:55.676Z,102534.22
2023-02-11T11:24:44.718Z,102540.31
2023-02-11T11:27:20.961Z,102543.78
2023-02-11T11:29:55.127Z,102548.97
2023-02-11T11:32:33.080Z,102565.53
2023-02-11T11:35:03.535Z,102572.47
2023-02-11T11:37:33.307Z,102582.06
2023-02-11T11:40:02.532Z,102578.63
2023-02-11T11:42:34.804Z,102577.81
2023-02-11T11:45:14.983Z,102568.25
2023-02-11T11:47:51.613Z,102571.75
2023-02-11T11:50:23.916Z,102574.44
2023-02-11T11:53:01.713Z,102577.94
2023-02-11T11:55:34.920Z,102567.53
2023-02-11T11:58:01.777Z,102577.16
2023-02-11T12:00:40.994Z,102576.34
2023-02-11T12:03:31.667Z,102589.41
2023-02-11T12:06:14.817Z,102585.09
2023-02-11T12:08:52.544Z,102584.22
2023-02-11T12:11:54.673Z,102593.78
2023-02-11T12:14:53.337Z,102595.53
2023-02-11T12:17:22.856Z,102592.94
2023-02-11T12:20:10.078Z,102584.22
2023-02-11T12:22:42.379Z,102585.97
2023-02-11T12:25:23.997Z,102592.13
2023-02-11T12:27:55.033Z,102599.06
2023-02-11T12:30:21.513Z,102586.91
2023-02-11T12:33:08.602Z,102592.13
2023-02-11T12:35:59.201Z,102581.63
2023-02-11T12:39:03.520Z,102579.00
2023-02-11T12:42:06.069Z,102569.44
2023-02-11T12:44:51.757Z,102566.84
2023-02-11T12:47:23.982Z,102570.34
2023-02-11T12:50:01.346Z,102575.56
2023-02-11T12:52:58.151Z,102582.56
2023-02-11T12:55:33.370Z,102585.16
2023-02-11T12:58:01.683Z,102594.75
2023-02-11T13:00:51.324Z,102587.75
2023-02-11T13:03:24.130Z,102583.41
2023-02-11T13:05:58.830Z,102586.94
2023-02-11T13:08:37.672Z,102586.03
2023-02-11T13:11:16.063Z,102576.47
2023-02-11T13:13:45.628Z,102578.22
2023-02-11T13:16:39.192Z,102578.22
2023-02-11T13:19:30.738Z,102582.63
2023-02-11T13:22:11.526Z,102586.13
2023-02-11T13:24:51.133Z,102573.09
2023-02-11T13:27:59.817Z,102572.22
2023-02-11T13:30:35.735Z,102558.31
2023-02-11T13:33:15.860Z,102570.50
2023-02-11T13:35:57.421Z,102563.56
2023-02-11T13:38:29.661Z,102574.00
2023-02-11T13:41:06.704Z,102587.97
2023-02-11T13:43:36.297Z,102593.19
2023-02-11T13:46:06.149Z,102591.44
2023-02-11T13:48:53.073Z,102594.91
2023-02-11T13:51:39.123Z,102600.16
2023-02-11T13:54:07.595Z,102605.38
2023-02-11T13:56:40.647Z,102607.97
2023-02-11T13:59:32.907Z,102617.59
2023-02-11T14:02:18.258Z,102622.84
2023-02-11T14:05:23.841Z,102619.31
2023-02-11T14:08:28.159Z,102626.28
2023-02-11T14:10:57.567Z,102633.28
2023-02-11T14:13:27.028Z,102642.91
2023-02-11T14:16:37.362Z,102654.22
2023-02-11T14:19:06.136Z,102658.56
2023-02-11T14:21:39.506Z,102667.28
2023-02-11T14:24:06.984Z,102665.56
2023-02-11T14:26:36.445Z,102675.13
2023-02-11T14:29:16.437Z,102671.63
2023-02-11T14:32:04.019Z,102678.53
2023-02-11T14:34:53.470Z,102684.69
2023-02-11T14:37:52.738Z,102676.78
2023-02-11T14:40:41.038Z,102681.94
2023-02-11T14:43:19.912Z,102687.94
2023-02-11T14:45:51.477Z,102688.81
2023-02-11T14:48:20.220Z,102687.09
2023-02-11T14:50:51.981Z,102692.28
2023-02-11T14:53:25.425Z,102694.91
2023-02-11T14:55:54.477Z,102695.72
2023-02-11T14:58:29.900Z,102691.38
2023-02-11T15:01:29.804Z,102700.06
2023-02-11T15:03:58.285Z,102704.38
2023-02-11T15:06:49.605Z,102706.97
2023-02-11T15:09:49.697Z,102707.84
2023-02-11T15:12:25.108Z,102712.16
2023-02-11T15:14:55.370Z,102718.25
2023-02-11T15:17:29.371Z,102733.03
2023-02-11T15:20:00.224Z,102733.00
2023-02-11T15:22:35.056Z,102733.00
2023-02-11T15:25:10.309Z,102732.13
2023-02-11T15:27:47.774Z,102732.94
2023-02-11T15:30:25.264Z,102755.56
2023-02-11T15:33:03.258Z,102750.34
2023-02-11T15:35:35.004Z,102755.53
2023-02-11T15:38:01.949Z,102758.16
2023-02-11T15:40:34.595Z,102759.88
2023-02-11T15:43:03.989Z,102758.97
2023-02-11T15:45:35.139Z,102759.88
2023-02-11T15:48:20.157Z,102750.25
2023-02-11T15:50:56.159Z,102751.91
2023-02-11T15:53:33.425Z,102749.31
2023-02-11T15:56:20.044Z,102758.84
2023-02-11T15:58:48.112Z,102758.81
2023-02-11T16:01:15.368Z,102757.06
2023-02-11T16:03:43.584Z,102769.25
2023-02-11T16:06:18.941Z,102770.06
2023-02-11T16:09:05.012Z,102770.91
2023-02-11T16:11:58.057Z,102772.59
2023-02-11T16:14:27.749Z,102773.41
2023-02-11T16:16:56.456Z,102777.72
2023-02-11T16:19:25.728Z,102779.38
2023-02-11T16:21:54.677Z,102791.53
2023-02-11T16:24:28.482Z,102792.38
2023-02-11T16:26:59.089Z,102799.25
2023-02-11T16:29:28.827Z,102807.06
2023-02-11T16:32:05.768Z,102814.88
2023-02-11T16:34:32.399Z,102803.50
2023-02-11T16:36:58.943Z,102819.13
2023-02-11T16:39:25.751Z,102818.25
2023-02-11T16:41:52.400Z,102829.53
2023-02-11T16:44:19.474Z,102826.91
2023-02-11T16:46:45.989Z,102832.97
2023-02-11T16:49:25.754Z,102839.03
2023-02-11T16:51:56.887Z,102834.63
2023-02-11T16:54:23.607Z,102837.22
2023-02-11T16:56:50.631Z,102838.06
2023-02-11T16:59:17.260Z,102843.25
2023-02-11T17:01:45.064Z,102844.91
2023-02-11T17:04:18.659Z,102850.09
2023-02-11T17:06:45.590Z,102855.31
2023-02-11T17:09:18.623Z,102861.41
2023-02-11T17:11:45.428Z,102868.34
2023-02-11T17:14:12.130Z,102863.94
2023-02-11T17:16:38.804Z,102870.91
2023-02-11T17:19:05.502Z,102876.97
2023-02-11T17:21:32.046Z,102885.66
2023-02-11T17:23:59.272Z,102893.50
2023-02-11T17:26:26.022Z,102889.94
2023-02-11T17:28:52.652Z,102894.28
2023-02-11T17:31:19.475Z,102888.16
2023-02-11T17:33:46.086Z,102895.91
2023-02-11T17:36:14.760Z,102897.69
2023-02-11T17:38:41.375Z,102902.91
2023-02-11T17:41:07.882Z,102901.13
2023-02-11T17:43:34.603Z,102908.13
2023-02-11T17:46:01.245Z,102908.09
2023-02-11T17:48:27.812Z,102913.31
2023-02-11T17:50:54.535Z,102910.66
2023-02-11T17:53:21.090Z,102916.72
2023-02-11T17:55:47.653Z,102923.69
2023-02-11T17:58:14.723Z,102914.94
2023-02-11T18:00:41.337Z,102928.78
2023-02-11T18:03:07.927Z,102933.13
2023-02-11T18:05:37.757Z,102936.59
2023-02-11T18:08:06.972Z,102934.84
2023-02-11T18:10:34.204Z,102931.25
2023-02-11T18:13:01.185Z,102945.13
2023-02-11T18:15:27.840Z,102945.13
2023-02-11T18:17:55.573Z,102945.97
2023-02-11T18:20:22.419Z,102959.00
2023-02-11T18:22:48.995Z,102962.47
2023-02-11T18:25:15.932Z,102969.41
2023-02-11T18:27:43.125Z,102966.75
2023-02-11T18:30:16.000Z,102958.06
2023-02-11T18:32:42.630Z,102960.66
2023-02-11T18:35:14.835Z,102971.09
2023-02-11T18:37:42.714Z,102958.03
2023-02-11T18:40:10.459Z,102966.69
2023-02-11T18:42:37.432Z,102965.78
2023-02-11T18:45:07.085Z,102962.22
2023-02-11T18:47:33.738Z,102963.97
2023-02-11T18:50:00.312Z,102963.91
2023-02-11T18:52:26.785Z,102978.63
2023-02-11T18:54:53.609Z,102975.09
2023-02-11T18:57:20.079Z,102982.03
2023-02-11T18:59:46.908Z,102976.78
2023-02-11T19:02:13.871Z,102970.66
2023-02-11T19:04:40.326Z,102972.31
2023-02-11T19:07:06.880Z,102979.25
2023-02-11T19:09:33.544Z,102991.41
2023-02-11T19:12:01.896Z,102989.66
2023-02-11T19:14:31.701Z,102993.09
2023-02-11T19:17:00.047Z,103000.91
2023-02-11T19:19:30.086Z,102996.56
2023-02-11T19:21:57.895Z,102990.47
2023-02-11T19:24:25.272Z,102983.53
2023-02-11T19:26:53.749Z,102979.19
2023-02-11T19:29:20.628Z,102985.28
2023-02-11T19:31:47.357Z,102987.88
2023-02-11T19:34:16.541Z,102989.66
2023-02-11T19:36:43.481Z,102990.53
2023-02-11T19:39:10.302Z,102998.34
2023-02-11T19:41:37.010Z,103008.72
2023-02-11T19:44:05.647Z,103008.72
2023-02-11T19:46:35.921Z,103014.81
2023-02-11T19:49:04.028Z,103009.59
2023-02-11T19:51:33.526Z,103008.72
2023-02-11T19:54:00.947Z,103013.06
2023-02-11T19:56:30.490Z,103012.22
2023-02-11T19:58:57.281Z,103010.44
2023-02-11T20:01:25.243Z,103012.13
2023-02-11T20:03:54.554Z,103014.75
2023-02-11T20:06:24.901Z,103017.34
2023-02-11T20:09:00.233Z,103013.88
2023-02-11T20:11:29.788Z,103019.97
2023-02-11T20:13:57.061Z,103026.00
2023-02-11T20:16:40.640Z,103035.59
2023-02-11T20:19:16.869Z,103038.22
2023-02-11T20:21:48.427Z,103038.22
2023-02-11T20:24:18.826Z,103043.38
2023-02-11T20:26:48.346Z,103042.53
2023-02-11T20:29:16.768Z,103039.03
2023-02-11T20:31:43.653Z,103045.13
2023-02-11T20:34:12.150Z,103052.03
2023-02-11T20:36:40.239Z,103043.38
2023-02-11T20:39:07.516Z,103042.53
2023-02-11T20:41:35.149Z,103042.50
2023-02-11T20:44:06.303Z,103044.25
2023-02-11T20:46:34.235Z,103052.03
2023-02-11T20:49:01.144Z,103053.81
2023-02-11T20:51:29.708Z,103062.47
2023-02-11T20:53:56.696Z,103065.06
2023-02-11T20:56:28.735Z,103076.41
2023-02-11T20:58:57.617Z,103060.75
2023-02-11T21:01:27.158Z,103059.91
2023-02-11T21:04:00.197Z,103053.81
2023-02-11T21:06:31.011Z,103058.19
2023-02-11T21:08:57.634Z,103063.41
2023-02-11T21:11:24.774Z,103069.50
2023-02-11T21:13:51.448Z,103073.88
2023-02-11T21:16:22.766Z,103086.97
2023-02-11T21:18:50.937Z,103083.44
2023-02-11T21:21:18.882Z,103094.75
2023-02-11T21:23:46.398Z,103099.94
2023-02-11T21:26:13.665Z,103097.34
2023-02-11T21:28:41.258Z,103102.59
2023-02-11T21:31:08.372Z,103109.59
2023-02-11T21:33:35.121Z,103119.13
2023-02-11T21:36:04.452Z,103134.75
2023-02-11T21:38:31.218Z,103127.81
2023-02-11T21:41:06.316Z,103133.03
2023-02-11T21:43:33.747Z,103144.31
2023-02-11T21:46:00.655Z,103141.72
2023-02-11T21:48:27.259Z,103149.53
2023-02-11T21:50:54.285Z,103139.97
2023-02-11T21:53:20.729Z,103151.31
2023-02-11T21:55:47.254Z,103149.50
2023-02-11T21:58:14.518Z,103156.50
2023-02-11T22:00:41.118Z,103150.41
2023-02-11T22:03:07.785Z,103154.75
2023-02-11T22:05:34.665Z,103159.13
2023-02-11T22:08:01.196Z,103170.44
2023-02-11T22:10:27.712Z,103165.22
2023-02-11T22:12:54.642Z,103161.75
2023-02-11T22:15:21.165Z,103167.84
2023-02-11T22:17:47.683Z,103163.44
2023-02-11T22:20:14.388Z,103170.44
2023-02-11T22:22:40.882Z,103166.06
2023-02-11T22:25:07.790Z,103161.75
2023-02-11T22:27:34.622Z,103163.44
2023-02-11T22:30:02.601Z,103166.97
2023-02-11T22:32:29.198Z,103165.19
2023-02-11T22:34:55.709Z,103157.34
2023-02-11T22:37:22.448Z,103157.31
2023-02-11T22:39:51.315Z,103161.66
2023-02-11T22:42:17.895Z,103168.56
2023-02-11T22:44:44.981Z,103174.69
2023-02-11T22:47:11.567Z,103168.53
2023-02-11T22:49:40.225Z,103166.78
2023-02-11T22:52:06.869Z,103171.13
2023-02-11T22:54:33.713Z,103171.13
2023-02-11T22:57:00.529Z,103171.13
2023-02-11T22:59:26.990Z,103185.91
2023-02-11T23:01:53.883Z,103180.69
2023-02-11T23:04:20.932Z,103188.50
2023-02-11T23:06:50.372Z,103189.34
2023-02-11T23:09:16.918Z,103190.22
2023-02-11T23:11:44.032Z,103195.44
2023-02-11T23:14:12.047Z,103196.28
2023-02-11T23:16:38.916Z,103188.47
2023-02-11T23:19:08.781Z,103184.97
2023-02-11T23:21:38.448Z,103197.06
2023-02-11T23:24:08.631Z,103198.00
2023-02-11T23:26:38.342Z,103219.75
2023-02-11T23:29:05.471Z,103222.38
2023-02-11T23:31:34.820Z,103228.41
2023-02-11T23:34:01.903Z,103224.84
2023-02-11T23:36:29.095Z,103225.72
2023-02-11T23:38:55.998Z,103226.56
2023-02-11T23:41:23.400Z,103231.75
2023-02-11T23:43:57.566Z,103226.50
2023-02-11T23:46:25.806Z,103230.78
2023-02-11T23:48:53.059Z,103236.00
2023-02-11T23:51:20.096Z,103228.19
2023-02-11T23:53:49.068Z,103242.09
2023-02-11T23:56:19.612Z,103232.47
2023-02-11T23:58:50.792Z,103239.44
